Overview Statistics Trail Chart Weather Telemetry Raw packets
 

This is the latest recevied weather packets stored in our database for station/object VK2EHQ. If no packets are shown the sender has not sent any weather packets the latest 10 day(s).

<< 3 4 5 6 7 8 9 >>
Time Temp. Humidity Pressure Rain* Wind** Luminosity Snow
1788502263 23.33° C 44% 1017.1 hPa 0 mm - - -
1788501663 24.44° C 36% 1017.2 hPa 0 mm - - -
1788501063 24.44° C 34% 1017.2 hPa 0 mm - - -
1788500463 23.89° C 35% 1017.4 hPa 0 mm - - -
1788499864 23.89° C 34% 1017.4 hPa 0 mm - - -
1788499263 23.33° C 34% 1017.4 hPa 0 mm - - -
1788498663 23.33° C 35% 1017.5 hPa 0 mm - - -
1788498063 23.33° C 36% 1017.6 hPa 0 mm - - -
1788497463 23.33° C 35% 1017.8 hPa 0 mm - - -
1788496862 23.33° C 35% 1017.9 hPa 0 mm - - -
1788496263 22.78° C 38% 1018 hPa 0 mm - - -
1788495663 22.22° C 38% 1018.2 hPa 0 mm - - -
1788495062 22.22° C 39% 1018.3 hPa 0 mm - - -
1788494462 21.67° C 41% 1018.4 hPa 0 mm - - -
1788493862 21.11° C 41% 1018.5 hPa 0 mm - - -
1788493262 20.56° C 41% 1018.7 hPa 0 mm - - -
1788492662 21.11° C 41% 1018.8 hPa 0 mm - - -
1788492062 20.56° C 42% 1018.9 hPa 0 mm - - -
1788491462 20.56° C 41% 1019.1 hPa 0 mm - - -
1788490862 21.11° C 42% 1019.3 hPa 0 mm - - -
1788490262 20.56° C 42% 1019.5 hPa 0 mm - - -
1788489662 20.56° C 44% 1019.4 hPa 0 mm - - -
1788489062 20° C 46% 1019.7 hPa 0 mm - - -
1788488462 19.44° C 45% 1019.9 hPa 0 mm - - -
1788487862 19.44° C 47% 1020.2 hPa 0 mm - - -

* Rain latest hour (hover to see other rain measurements)
** Current wind speed in m/s (hover to see current wind gust speed)